Time;durP1;ratioP1;P1;durP2;ratioP2;P2;SDS_P1;SDS_P2;PMS_P1;PMS_P2;Temp;Humidity;BMP_temperature;BMP_pressure;BME280_temperature;BME280_humidity;BME280_pressure;Samples;Min_cycle;Max_cycle;Signal;HPM_P1;HPM_P2
2021/05/22 02:05:42;;;;;;;9.43;9.10;;;11.80;99.90;;;;;;6111611;23;20421;31
2021/05/22 02:08:13;;;;;;;9.50;9.13;;;11.80;99.90;;;;;;4953201;28;20475;-68
2021/05/22 02:10:40;;;;;;;9.47;9.03;;;11.90;99.90;;;;;;4955280;28;20991;-68
2021/05/22 02:13:07;;;;;;;9.37;8.87;;;11.90;99.90;;;;;;4955440;28;20475;-69
2021/05/22 02:15:35;;;;;;;9.87;9.57;;;12.00;99.90;;;;;;4955701;28;20459;-69
2021/05/22 02:18:04;;;;;;;9.50;9.20;;;12.00;99.90;;;;;;4955824;28;20827;-69
2021/05/22 02:20:32;;;;;;;9.90;9.30;;;11.90;99.90;;;;;;4955697;28;20567;-69
2021/05/22 02:23:01;;;;;;;9.20;8.90;;;11.80;99.90;;;;;;4955767;28;20563;-69
2021/05/22 02:25:28;;;;;;;9.47;9.17;;;11.80;99.90;;;;;;4955656;28;20825;-69
2021/05/22 02:27:57;;;;;;;10.37;9.97;;;11.80;99.90;;;;;;4955448;28;20452;-69
2021/05/22 02:30:25;;;;;;;12.40;11.67;;;11.70;99.90;;;;;;4955382;28;20456;-71
2021/05/22 02:32:52;;;;;;;11.87;11.57;;;11.60;99.90;;;;;;4955289;29;20460;-70
2021/05/22 02:35:20;;;;;;;12.40;12.00;;;11.40;99.90;;;;;;4955047;29;20511;-71
2021/05/22 02:37:49;;;;;;;12.73;12.03;;;11.20;99.90;;;;;;4955388;29;20456;-70
2021/05/22 02:40:20;;;;;;;16.97;16.17;;;11.00;99.90;;;;;;4955230;29;20495;-71
2021/05/22 02:42:48;;;;;;;21.40;20.50;;;10.80;99.90;;;;;;4955353;29;20502;-71
2021/05/22 02:45:16;;;;;;;24.50;23.40;;;10.60;99.90;;;;;;4955211;29;20821;-70
2021/05/22 02:47:45;;;;;;;26.47;25.37;;;10.40;99.90;;;;;;4955138;29;20449;-69
2021/05/22 02:50:12;;;;;;;27.70;26.20;;;10.30;99.90;;;;;;4955008;29;20471;-68
2021/05/22 02:52:39;;;;;;;26.00;24.90;;;10.10;99.90;;;;;;4954474;28;20955;-71
2021/05/22 02:55:07;;;;;;;24.97;23.97;;;10.00;99.90;;;;;;4954886;29;20461;-71
2021/05/22 02:57:35;;;;;;;25.80;24.63;;;9.80;99.90;;;;;;4955035;28;20826;-71
2021/05/22 03:00:04;;;;;;;26.57;25.37;;;9.80;99.90;;;;;;4954875;29;20834;-70
2021/05/22 03:02:30;;;;;;;25.47;24.47;;;9.90;99.90;;;;;;4955118;29;20456;-70
2021/05/22 03:04:57;;;;;;;25.50;24.20;;;9.80;99.90;;;;;;4954831;29;20477;-71
2021/05/22 03:07:24;;;;;;;24.13;23.17;;;9.80;99.90;;;;;;4981865;28;20486;-70
2021/05/22 03:09:51;;;;;;;24.67;23.67;;;9.70;99.90;;;;;;4993504;28;20452;-71
2021/05/22 03:12:21;;;;;;;24.00;23.10;;;9.70;99.90;;;;;;4993523;28;20832;-70
2021/05/22 03:14:48;;;;;;;23.73;22.63;;;9.70;99.90;;;;;;4993474;28;20550;-70
2021/05/22 03:17:15;;;;;;;22.40;21.50;;;9.70;99.90;;;;;;4993405;28;20455;-71
2021/05/22 03:19:41;;;;;;;23.47;22.37;;;9.80;99.90;;;;;;4993144;28;21068;-71
2021/05/22 03:22:07;;;;;;;21.97;21.17;;;9.80;99.90;;;;;;4993170;28;20448;-71
2021/05/22 03:24:33;;;;;;;22.50;21.50;;;9.80;99.90;;;;;;4993067;28;20964;-70
2021/05/22 03:26:59;;;;;;;22.13;21.17;;;9.80;99.90;;;;;;4993314;28;20455;-70
2021/05/22 03:29:26;;;;;;;20.33;19.53;;;9.90;99.90;;;;;;4993051;28;20455;-69
2021/05/22 03:31:53;;;;;;;19.50;18.80;;;9.90;99.90;;;;;;4993006;28;20612;-69
2021/05/22 03:34:19;;;;;;;19.50;18.70;;;9.80;99.90;;;;;;4992925;28;20478;-68
2021/05/22 03:36:46;;;;;;;18.70;18.00;;;9.80;99.90;;;;;;4993020;28;20459;-69
2021/05/22 03:39:12;;;;;;;17.80;17.00;;;9.80;99.90;;;;;;4992850;28;20491;-69
2021/05/22 03:41:39;;;;;;;17.13;16.27;;;9.70;99.90;;;;;;4992785;28;20456;-69
2021/05/22 03:44:05;;;;;;;17.17;16.57;;;9.80;99.90;;;;;;4992726;28;20456;-69
2021/05/22 03:46:31;;;;;;;15.97;15.27;;;9.80;99.90;;;;;;4992805;28;20451;-69
2021/05/22 03:48:58;;;;;;;15.80;15.30;;;9.80;99.90;;;;;;4992791;28;20474;-70
2021/05/22 03:51:24;;;;;;;16.00;15.30;;;9.90;99.90;;;;;;4992475;28;20450;-69
2021/05/22 03:53:51;;;;;;;16.63;15.70;;;10.00;99.90;;;;;;4992485;28;20451;-68
2021/05/22 03:56:17;;;;;;;16.10;15.50;;;10.10;99.90;;;;;;4992604;28;20453;-69
2021/05/22 03:58:43;;;;;;;16.00;15.20;;;10.20;99.90;;;;;;4992685;28;20461;-69
2021/05/22 04:01:09;;;;;;;14.90;14.30;;;10.20;99.90;;;;;;4992406;28;20493;-69
2021/05/22 04:03:36;;;;;;;14.97;14.00;;;10.30;99.90;;;;;;4991526;28;20948;-70
2021/05/22 04:06:03;;;;;;;14.10;13.60;;;10.40;99.90;;;;;;4992070;28;20489;-70
2021/05/22 04:08:29;;;;;;;14.37;13.87;;;10.40;99.90;;;;;;4992462;28;20459;-71
2021/05/22 04:10:55;;;;;;;13.47;12.87;;;10.40;99.90;;;;;;4992213;28;20936;-71
2021/05/22 04:13:21;;;;;;;13.53;12.93;;;10.50;99.90;;;;;;4992227;28;20455;-70
2021/05/22 04:15:48;;;;;;;13.30;12.63;;;10.50;99.90;;;;;;4992201;28;20859;-70
2021/05/22 04:18:14;;;;;;;13.20;12.67;;;10.60;99.90;;;;;;4992365;28;20474;-71
2021/05/22 04:20:40;;;;;;;13.50;12.90;;;10.70;99.90;;;;;;4991855;28;20494;-71
2021/05/22 04:23:07;;;;;;;13.20;12.80;;;10.70;99.90;;;;;;4991895;28;20453;-71
2021/05/22 04:25:33;;;;;;;12.97;12.37;;;10.80;99.90;;;;;;4992020;28;20454;-71
2021/05/22 04:28:00;;;;;;;13.00;12.50;;;10.70;99.90;;;;;;4992098;28;20821;-72
2021/05/22 04:30:27;;;;;;;12.00;11.60;;;10.70;99.90;;;;;;4991886;28;20534;-72
2021/05/22 04:32:54;;;;;;;12.87;12.33;;;10.70;99.90;;;;;;4991737;28;20454;-72
2021/05/22 04:35:20;;;;;;;13.37;12.77;;;10.80;99.90;;;;;;4991657;28;20874;-71
2021/05/22 04:37:46;;;;;;;13.00;12.50;;;10.80;99.90;;;;;;4991953;28;20454;-72
2021/05/22 04:40:14;;;;;;;12.80;12.10;;;10.80;99.90;;;;;;4991779;28;21015;-71
2021/05/22 04:42:41;;;;;;;13.23;12.70;;;10.60;99.90;;;;;;4991748;28;20463;-72
2021/05/22 04:45:07;;;;;;;12.40;11.83;;;10.60;99.90;;;;;;4991658;28;20448;-72
2021/05/22 04:47:35;;;;;;;12.73;12.20;;;10.50;99.90;;;;;;4991620;28;20458;-72
2021/05/22 04:50:01;;;;;;;12.07;11.67;;;10.50;99.90;;;;;;4991743;28;20482;-72
2021/05/22 04:52:27;;;;;;;11.80;11.40;;;10.40;99.90;;;;;;4991559;28;20451;-72
2021/05/22 04:54:53;;;;;;;11.70;11.30;;;10.40;99.90;;;;;;4991510;28;20605;-71
2021/05/22 04:57:21;;;;;;;11.50;11.10;;;10.40;99.90;;;;;;4991419;28;20447;-71
2021/05/22 04:59:47;;;;;;;10.70;10.27;;;11.00;99.90;;;;;;4988087;28;20486;-72
2021/05/22 05:02:13;;;;;;;10.73;10.43;;;11.60;99.90;;;;;;4980465;28;20467;-71
2021/05/22 05:04:40;;;;;;;11.27;10.80;;;12.00;99.90;;;;;;4971991;28;20479;-71
2021/05/22 05:07:06;;;;;;;11.20;10.80;;;12.40;99.90;;;;;;4971741;28;20787;-71
2021/05/22 05:09:34;;;;;;;11.27;10.87;;;12.80;99.90;;;;;;4972002;28;20454;-69
2021/05/22 05:12:01;;;;;;;11.30;10.80;;;13.20;99.90;;;;;;4972047;28;20460;-69
2021/05/22 05:14:28;;;;;;;10.93;10.53;;;13.40;99.90;;;;;;4971809;28;20459;-69
2021/05/22 05:16:55;;;;;;;10.83;10.43;;;13.10;99.90;;;;;;4971801;28;20463;-69
2021/05/22 05:19:23;;;;;;;10.77;10.47;;;12.50;99.90;;;;;;4971951;28;20487;-69
2021/05/22 05:21:49;;;;;;;10.70;10.23;;;11.90;99.90;;;;;;4971709;28;20459;-70
2021/05/22 05:24:15;;;;;;;10.60;10.30;;;11.60;99.90;;;;;;4971633;28;20455;-68
2021/05/22 05:26:41;;;;;;;10.77;10.37;;;12.10;99.90;;;;;;4971645;28;20447;-70
2021/05/22 05:29:08;;;;;;;11.53;11.13;;;12.70;99.90;;;;;;4971549;28;20459;-70
2021/05/22 05:31:35;;;;;;;10.83;10.43;;;13.20;99.90;;;;;;4971297;28;20455;-69
2021/05/22 05:34:01;;;;;;;11.47;11.07;;;13.70;99.90;;;;;;4971634;28;20464;-69
2021/05/22 05:36:27;;;;;;;11.20;10.80;;;13.50;99.90;;;;;;4971397;28;20455;-69
2021/05/22 05:38:53;;;;;;;11.00;10.60;;;13.50;99.90;;;;;;4971686;28;20452;-69
2021/05/22 05:41:19;;;;;;;11.10;10.70;;;13.00;99.90;;;;;;4971323;28;20576;-69
2021/05/22 05:43:46;;;;;;;10.70;10.40;;;12.60;99.90;;;;;;4971581;28;20961;-69
2021/05/22 05:46:12;;;;;;;10.70;10.10;;;12.20;99.90;;;;;;4971492;28;20455;-69
2021/05/22 05:48:39;;;;;;;11.03;10.73;;;12.00;99.90;;;;;;4971454;28;20469;-68
2021/05/22 05:51:05;;;;;;;10.50;10.20;;;11.90;99.90;;;;;;4971328;28;20477;-69
2021/05/22 05:53:31;;;;;;;10.43;10.13;;;12.00;99.90;;;;;;4969671;28;20455;-69
2021/05/22 05:55:58;;;;;;;11.50;11.10;;;11.90;99.90;;;;;;4971965;28;20456;-69
2021/05/22 05:58:24;;;;;;;10.43;10.03;;;12.10;99.90;;;;;;4971772;28;20452;-69
2021/05/22 06:00:50;;;;;;;11.13;10.53;;;12.30;99.90;;;;;;4971640;28;20491;-69
2021/05/22 06:03:25;;;;;;;10.37;9.87;;;12.30;99.90;;;;;;4971956;28;20455;-69
2021/05/22 06:05:53;;;;;;;11.10;10.50;;;12.40;99.90;;;;;;4971382;28;21104;-70
2021/05/22 06:08:19;;;;;;;11.17;10.80;;;12.70;99.90;;;;;;4971820;28;20799;-69
2021/05/22 06:10:48;;;;;;;10.60;10.20;;;13.30;99.90;;;;;;4971818;28;20443;-69
2021/05/22 06:13:22;;;;;;;10.87;10.43;;;14.30;99.90;;;;;;4971800;28;20455;-69
2021/05/22 06:15:50;;;;;;;11.27;10.87;;;15.00;99.90;;;;;;4971656;28;20456;-69
2021/05/22 06:18:16;;;;;;;11.40;10.90;;;15.80;99.90;;;;;;4971633;28;20513;-69
2021/05/22 06:20:42;;;;;;;11.37;10.80;;;16.50;99.90;;;;;;4971498;28;20866;-69
2021/05/22 06:23:09;;;;;;;12.00;11.30;;;15.80;99.90;;;;;;4971515;28;20463;-69
2021/05/22 06:25:36;;;;;;;11.70;11.23;;;15.80;99.90;;;;;;4971487;28;20455;-68
2021/05/22 06:28:02;;;;;;;11.37;10.83;;;16.10;99.90;;;;;;4974483;28;20796;-69
2021/05/22 06:30:28;;;;;;;11.67;11.27;;;16.60;99.90;;;;;;4974740;28;20455;-69
2021/05/22 06:32:54;;;;;;;11.10;10.57;;;16.80;99.40;;;;;;4974630;28;20463;-69
2021/05/22 06:35:20;;;;;;;11.20;10.80;;;17.20;98.70;;;;;;4974574;28;20942;-69
2021/05/22 06:37:46;;;;;;;10.40;9.90;;;18.00;98.80;;;;;;4974821;28;20454;-68
2021/05/22 06:40:15;;;;;;;11.17;10.80;;;18.80;97.10;;;;;;4974756;28;20495;-68
2021/05/22 06:42:41;;;;;;;11.80;11.20;;;19.10;95.30;;;;;;4974675;28;20451;-69
2021/05/22 06:45:10;;;;;;;11.13;10.50;;;20.00;93.70;;;;;;4974434;28;20671;-68
2021/05/22 06:47:37;;;;;;;11.57;11.03;;;19.70;92.70;;;;;;4974781;28;20545;-68
2021/05/22 06:50:04;;;;;;;10.97;10.47;;;18.90;93.60;;;;;;4974730;28;20452;-69
2021/05/22 06:52:30;;;;;;;11.77;11.27;;;18.90;93.40;;;;;;4974927;28;20510;-69
2021/05/22 06:54:56;;;;;;;12.07;11.30;;;19.30;93.00;;;;;;4974793;28;20514;-68
2021/05/22 06:57:23;;;;;;;11.03;10.53;;;19.30;92.70;;;;;;4974726;28;20459;-68
2021/05/22 06:59:50;;;;;;;10.90;10.20;;;19.60;92.40;;;;;;4974538;28;20861;-68
2021/05/22 07:02:16;;;;;;;11.37;10.97;;;20.00;93.00;;;;;;4974578;28;20464;-71
2021/05/22 07:04:42;;;;;;;11.83;11.20;;;20.90;91.20;;;;;;4974513;28;20472;-69
2021/05/22 07:07:08;;;;;;;11.17;10.77;;;21.00;90.00;;;;;;4974383;28;20479;-68
2021/05/22 07:09:35;;;;;;;11.70;11.20;;;20.90;90.00;;;;;;4972395;28;20969;-68
2021/05/22 07:12:01;;;;;;;11.30;10.70;;;20.70;90.40;;;;;;4989766;28;20569;-69
2021/05/22 07:14:29;;;;;;;11.83;11.30;;;20.00;90.80;;;;;;4993753;28;20450;-68
2021/05/22 07:16:57;;;;;;;11.80;11.30;;;19.80;90.10;;;;;;4993583;28;20454;-69
2021/05/22 07:19:24;;;;;;;11.70;11.30;;;20.50;87.80;;;;;;4993368;28;20490;-68
2021/05/22 07:21:51;;;;;;;11.60;10.90;;;20.10;87.90;;;;;;4993769;28;20463;-68
2021/05/22 07:24:17;;;;;;;11.00;10.60;;;19.40;87.50;;;;;;4993804;28;20442;-68
2021/05/22 07:26:43;;;;;;;11.07;10.60;;;19.40;88.60;;;;;;4993799;28;20455;-68
2021/05/22 07:29:10;;;;;;;10.40;9.90;;;19.10;87.90;;;;;;4993350;28;20451;-68
2021/05/22 07:31:40;;;;;;;11.80;11.10;;;19.40;87.30;;;;;;4993606;28;20488;-68
2021/05/22 07:34:06;;;;;;;12.40;11.83;;;19.10;86.20;;;;;;4993460;28;20454;-68
2021/05/22 07:36:33;;;;;;;11.53;10.93;;;18.70;85.70;;;;;;4993474;28;20450;-68
2021/05/22 07:38:59;;;;;;;12.60;11.80;;;18.10;87.60;;;;;;4993493;28;20455;-68
2021/05/22 07:41:25;;;;;;;11.37;10.67;;;17.80;88.60;;;;;;4993182;28;20494;-67
2021/05/22 07:43:51;;;;;;;10.57;10.07;;;17.60;90.00;;;;;;4993358;28;20698;-68
2021/05/22 07:46:17;;;;;;;10.50;10.00;;;17.60;90.10;;;;;;4993322;28;20455;-67
2021/05/22 07:48:44;;;;;;;11.07;10.60;;;17.40;90.10;;;;;;4993395;28;20864;-67
2021/05/22 07:51:10;;;;;;;9.00;8.70;;;17.00;89.00;;;;;;4993279;28;20451;-70
2021/05/22 07:53:37;;;;;;;11.10;10.50;;;17.00;87.90;;;;;;4993208;28;20459;-70
2021/05/22 07:56:03;;;;;;;9.33;8.83;;;16.80;89.90;;;;;;4992886;28;20451;-70
2021/05/22 07:58:29;;;;;;;9.90;9.60;;;17.00;89.80;;;;;;4993230;28;20450;-71
2021/05/22 08:00:56;;;;;;;11.00;10.40;;;17.30;90.10;;;;;;4992872;28;20487;-68
2021/05/22 08:03:22;;;;;;;10.77;10.17;;;17.90;89.40;;;;;;4992772;28;20462;-69
2021/05/22 08:05:49;;;;;;;11.40;10.60;;;18.20;87.50;;;;;;4992513;28;20833;-68
2021/05/22 08:08:15;;;;;;;10.73;10.23;;;18.10;86.50;;;;;;4992793;28;20459;-68
2021/05/22 08:10:41;;;;;;;13.33;12.53;;;18.60;84.30;;;;;;4992605;28;20447;-69
2021/05/22 08:13:09;;;;;;;10.10;9.70;;;18.60;83.20;;;;;;4992696;28;20582;-68
2021/05/22 08:15:35;;;;;;;10.83;10.23;;;18.40;83.80;;;;;;4989516;28;20551;-68
2021/05/22 08:18:02;;;;;;;12.43;11.40;;;19.40;83.10;;;;;;4980469;28;20508;-68
2021/05/22 08:20:28;;;;;;;12.07;11.00;;;19.90;79.00;;;;;;4981072;28;20490;-68
2021/05/22 08:22:55;;;;;;;11.10;10.50;;;19.60;78.60;;;;;;4972962;28;21107;-68
2021/05/22 08:25:21;;;;;;;11.07;10.43;;;19.00;79.10;;;;;;4988877;28;20502;-69
2021/05/22 08:27:50;;;;;;;10.67;10.20;;;19.10;77.10;;;;;;4992601;28;20458;-69
2021/05/22 08:30:17;;;;;;;11.47;10.70;;;19.20;78.30;;;;;;4992485;28;20447;-68
2021/05/22 08:32:43;;;;;;;10.80;10.30;;;19.80;74.90;;;;;;4985801;28;20463;-69
2021/05/22 08:35:10;;;;;;;11.20;10.50;;;20.10;72.60;;;;;;4972749;28;20463;-69
2021/05/22 08:37:37;;;;;;;10.90;10.20;;;20.30;73.60;;;;;;4972833;28;20452;-68
2021/05/22 08:40:05;;;;;;;9.57;9.07;;;20.00;73.10;;;;;;4972852;28;20499;-68
2021/05/22 08:42:32;;;;;;;10.80;10.30;;;20.30;75.10;;;;;;4972997;28;20470;-69
2021/05/22 08:45:09;;;;;;;10.63;10.10;;;21.20;70.10;;;;;;4972737;28;20816;-69
2021/05/22 08:47:35;;;;;;;11.00;10.50;;;21.80;68.70;;;;;;4972656;28;20506;-70
2021/05/22 08:50:02;;;;;;;10.87;10.47;;;22.50;66.10;;;;;;4980686;28;20447;-70
2021/05/22 08:52:28;;;;;;;11.27;10.83;;;22.70;63.60;;;;;;4992330;28;20521;-70
2021/05/22 08:54:54;;;;;;;10.40;9.90;;;21.80;61.70;;;;;;4992018;28;20825;-70
2021/05/22 08:57:21;;;;;;;11.00;10.50;;;22.00;62.60;;;;;;4992035;28;20458;-70
2021/05/22 08:59:48;;;;;;;11.33;10.73;;;21.40;62.80;;;;;;4991915;28;20490;-70
2021/05/22 09:02:18;;;;;;;10.40;10.00;;;21.70;62.40;;;;;;4992142;28;20447;-70
2021/05/22 09:05:09;;;;;;;11.00;10.50;;;22.30;60.00;;;;;;4991897;28;20569;-70
2021/05/22 09:07:36;;;;;;;10.60;10.10;;;22.60;57.20;;;;;;4991897;28;20486;-70
2021/05/22 09:10:09;;;;;;;10.53;10.00;;;21.90;58.20;;;;;;4991880;28;20882;-70
2021/05/22 09:12:37;;;;;;;10.53;10.13;;;21.70;58.90;;;;;;4991767;28;20446;-70
2021/05/22 09:15:09;;;;;;;10.73;10.27;;;21.70;59.00;;;;;;4991624;28;20459;-69
2021/05/22 09:17:36;;;;;;;9.43;9.13;;;21.70;57.50;;;;;;4991733;28;20455;-69
2021/05/22 09:20:14;;;;;;;9.20;8.70;;;21.30;57.70;;;;;;4991381;28;20589;-69
2021/05/22 09:22:40;;;;;;;10.33;9.93;;;20.90;57.70;;;;;;4991577;28;20963;-69
2021/05/22 09:25:08;;;;;;;10.63;10.13;;;21.30;57.50;;;;;;4975717;28;20458;-70
2021/05/22 09:27:38;;;;;;;9.70;9.30;;;21.30;57.00;;;;;;4972220;28;20460;-70
2021/05/22 09:30:11;;;;;;;11.93;11.23;;;21.80;56.00;;;;;;4972275;28;20452;-69
2021/05/22 09:32:37;;;;;;;9.60;9.20;;;22.10;55.90;;;;;;4972357;28;20458;-69
2021/05/22 09:35:05;;;;;;;10.20;9.80;;;22.30;54.50;;;;;;4972263;28;20546;-68
2021/05/22 09:37:39;;;;;;;10.73;10.23;;;21.60;54.00;;;;;;4972323;28;20482;-68
2021/05/22 09:40:06;;;;;;;11.00;10.30;;;21.20;54.20;;;;;;4972128;28;20823;-69
2021/05/22 09:42:32;;;;;;;10.40;10.00;;;22.10;55.00;;;;;;4972183;28;20455;-69
2021/05/22 09:45:01;;;;;;;9.63;9.13;;;21.90;53.50;;;;;;4972174;28;20475;-70
2021/05/22 09:47:27;;;;;;;9.80;9.40;;;21.40;53.50;;;;;;4972119;28;20460;-70
2021/05/22 09:49:54;;;;;;;9.93;9.53;;;21.00;56.00;;;;;;4972111;28;20447;-69
2021/05/22 09:52:22;;;;;;;10.73;10.23;;;22.40;55.60;;;;;;4972114;28;20451;-70
2021/05/22 09:54:50;;;;;;;10.50;10.20;;;24.10;53.50;;;;;;4972030;28;21039;-69
2021/05/22 09:57:17;;;;;;;10.40;10.00;;;23.70;50.60;;;;;;4972098;28;20456;-69
2021/05/22 09:59:59;;;;;;;10.13;9.70;;;22.50;50.60;;;;;;4971980;28;20494;-68
2021/05/22 10:02:40;;;;;;;10.43;10.00;;;22.10;51.00;;;;;;4973944;28;20455;-69
2021/05/22 10:05:14;;;;;;;10.50;10.00;;;22.40;52.40;;;;;;4975679;28;20475;-69
2021/05/22 10:07:40;;;;;;;10.30;9.80;;;23.60;51.20;;;;;;4975504;28;20490;-69
2021/05/22 10:10:08;;;;;;;10.80;10.30;;;24.30;50.70;;;;;;4975549;28;20868;-69
2021/05/22 10:12:36;;;;;;;10.00;9.60;;;24.40;49.20;;;;;;4975361;28;20455;-69
2021/05/22 10:15:03;;;;;;;11.30;10.60;;;22.90;50.40;;;;;;4975521;28;20563;-69
2021/05/22 10:17:29;;;;;;;10.67;10.10;;;21.40;51.80;;;;;;4975424;28;20459;-70
2021/05/22 10:19:57;;;;;;;10.57;10.07;;;20.70;54.50;;;;;;4975233;28;20483;-70
2021/05/22 10:22:23;;;;;;;10.73;10.07;;;20.50;54.30;;;;;;4975305;28;20521;-69
2021/05/22 10:24:52;;;;;;;10.47;9.97;;;20.90;54.30;;;;;;4988934;28;20451;-69
2021/05/22 10:27:20;;;;;;;11.70;10.20;;;21.80;54.20;;;;;;4994710;28;20455;-69
2021/05/22 10:29:46;;;;;;;10.43;9.93;;;23.30;51.50;;;;;;4994683;28;20459;-69
2021/05/22 10:32:18;;;;;;;10.60;10.03;;;24.10;50.00;;;;;;4992802;28;20451;-69
2021/05/22 10:34:45;;;;;;;11.33;10.83;;;24.90;49.80;;;;;;4994010;28;20451;-70
2021/05/22 10:37:38;;;;;;;11.73;11.23;;;26.10;48.70;;;;;;4994063;28;20466;-70
2021/05/22 10:40:06;;;;;;;11.10;10.57;;;26.20;46.40;;;;;;4993826;28;20486;-70
2021/05/22 10:42:48;;;;;;;11.50;10.70;;;25.20;47.90;;;;;;4994058;28;20455;-69
2021/05/22 10:45:27;;;;;;;11.30;10.80;;;24.10;48.40;;;;;;4994143;28;20975;-69
2021/05/22 10:47:55;;;;;;;10.40;10.00;;;22.90;49.70;;;;;;4993892;28;20441;-69
2021/05/22 10:50:34;;;;;;;11.07;10.47;;;22.50;48.80;;;;;;4993718;28;20509;-69
2021/05/22 10:53:33;;;;;;;11.20;10.60;;;22.40;48.80;;;;;;4994259;28;20446;-68
2021/05/22 10:56:13;;;;;;;10.80;10.40;;;22.50;49.00;;;;;;4993877;28;20561;-70
2021/05/22 10:58:55;;;;;;;10.50;10.00;;;22.60;48.20;;;;;;4993737;28;20481;-69
2021/05/22 11:01:39;;;;;;;11.13;10.73;;;22.20;48.40;;;;;;4992600;28;20494;-70
2021/05/22 11:04:37;;;;;;;10.50;10.20;;;22.30;48.70;;;;;;4993298;28;20829;-69
2021/05/22 11:07:20;;;;;;;11.63;11.10;;;22.10;49.80;;;;;;4993682;28;20505;-70
2021/05/22 11:09:52;;;;;;;11.50;10.90;;;21.80;48.00;;;;;;4993829;28;20452;-69
2021/05/22 11:12:50;;;;;;;10.93;10.40;;;20.70;48.80;;;;;;4993379;28;20878;-69
2021/05/22 11:15:45;;;;;;;12.03;11.33;;;21.00;49.80;;;;;;4933759;29;20492;-69
2021/05/22 11:18:17;;;;;;;11.50;11.00;;;23.10;49.00;;;;;;4992139;28;20459;-70
2021/05/22 11:20:59;;;;;;;11.33;10.63;;;24.30;46.20;;;;;;4993670;28;20491;-70
2021/05/22 11:23:26;;;;;;;10.43;10.03;;;23.60;44.50;;;;;;4990116;28;20952;-70
2021/05/22 11:25:52;;;;;;;10.90;10.50;;;22.80;44.00;;;;;;4974111;28;20452;-69
2021/05/22 11:28:21;;;;;;;11.30;10.50;;;22.10;45.10;;;;;;4973961;28;20455;-70
2021/05/22 11:30:57;;;;;;;9.43;9.00;;;21.60;46.50;;;;;;4973806;28;20957;-70
2021/05/22 11:33:30;;;;;;;10.83;10.50;;;21.70;47.60;;;;;;4974066;28;20464;-70
2021/05/22 11:36:10;;;;;;;11.20;10.40;;;21.60;48.40;;;;;;4973777;28;20926;-70
2021/05/22 11:38:38;;;;;;;10.10;9.70;;;21.70;48.80;;;;;;4973802;28;20463;-70
2021/05/22 11:41:15;;;;;;;10.60;10.20;;;21.40;47.40;;;;;;4973568;28;20484;-70
2021/05/22 11:43:46;;;;;;;10.40;10.00;;;21.90;46.90;;;;;;4973778;28;20461;-70
2021/05/22 11:46:15;;;;;;;10.87;10.20;;;22.70;45.10;;;;;;4973509;28;20464;-70
2021/05/22 11:48:43;;;;;;;11.07;10.40;;;22.60;43.40;;;;;;4973566;28;20823;-70
2021/05/22 11:51:13;;;;;;;10.50;9.90;;;22.40;44.60;;;;;;4973366;28;20506;-70
2021/05/22 11:53:41;;;;;;;11.03;10.43;;;22.20;44.20;;;;;;4973269;28;20455;-70
2021/05/22 11:56:09;;;;;;;10.33;9.93;;;21.50;43.70;;;;;;4973380;28;20456;-70
2021/05/22 11:58:38;;;;;;;10.83;10.43;;;21.00;44.10;;;;;;4973198;28;21047;-69
2021/05/22 12:01:14;;;;;;;10.80;10.30;;;20.60;45.10;;;;;;4973115;28;21033;-69
2021/05/22 12:03:41;;;;;;;10.73;10.30;;;20.60;45.40;;;;;;4973292;28;20460;-69
2021/05/22 12:06:09;;;;;;;9.40;9.00;;;20.60;46.00;;;;;;4972938;28;20491;-69
2021/05/22 12:08:36;;;;;;;10.27;9.87;;;20.30;46.50;;;;;;4973131;28;20510;-69
2021/05/22 12:11:10;;;;;;;10.77;10.37;;;20.50;46.50;;;;;;4973002;28;20655;-69
2021/05/22 12:13:55;;;;;;;11.33;10.90;;;21.30;45.50;;;;;;4973124;28;20490;-69
2021/05/22 12:16:23;;;;;;;11.50;10.87;;;22.70;45.30;;;;;;4972662;28;20451;-68
2021/05/22 12:18:50;;;;;;;10.50;9.90;;;22.70;43.40;;;;;;4973142;28;20591;-69
2021/05/22 12:21:28;;;;;;;10.20;9.80;;;22.50;43.50;;;;;;4972619;28;20575;-70
2021/05/22 12:24:02;;;;;;;10.40;9.97;;;22.10;44.60;;;;;;4978457;28;20455;-69
2021/05/22 12:26:28;;;;;;;10.40;10.07;;;21.60;44.90;;;;;;4991886;28;20473;-70
2021/05/22 12:28:54;;;;;;;9.90;9.40;;;21.40;45.50;;;;;;4991948;28;20446;-70
2021/05/22 12:31:22;;;;;;;11.80;11.27;;;22.10;45.80;;;;;;4991778;28;20450;-67
2021/05/22 12:34:03;;;;;;;10.60;10.10;;;22.70;44.60;;;;;;4991791;28;21064;-70
2021/05/22 12:36:30;;;;;;;11.13;10.63;;;22.70;45.30;;;;;;4991779;28;20820;-70
2021/05/22 12:38:57;;;;;;;9.97;9.53;;;22.20;44.60;;;;;;4991649;28;20454;-69
2021/05/22 12:41:34;;;;;;;10.30;9.90;;;22.10;45.40;;;;;;4991462;28;20493;-70
2021/05/22 12:44:01;;;;;;;9.33;8.93;;;21.90;45.20;;;;;;4991718;28;20891;-69
2021/05/22 12:46:30;;;;;;;10.20;9.60;;;21.20;45.80;;;;;;4991653;28;20446;-69
2021/05/22 12:49:11;;;;;;;10.00;9.60;;;20.70;46.40;;;;;;4991194;28;20533;-70
2021/05/22 12:51:39;;;;;;;10.00;9.70;;;20.00;48.20;;;;;;4991295;28;20513;-69
2021/05/22 12:54:25;;;;;;;10.30;9.83;;;20.00;48.10;;;;;;4991382;28;20940;-70
2021/05/22 12:56:59;;;;;;;10.97;10.30;;;20.30;47.80;;;;;;4991364;28;20766;-70
2021/05/22 12:59:25;;;;;;;10.67;10.17;;;20.40;47.70;;;;;;4991171;28;20481;-69
2021/05/22 13:02:18;;;;;;;10.30;9.80;;;20.10;48.00;;;;;;4991081;28;20494;-70
2021/05/22 13:04:46;;;;;;;10.37;9.97;;;20.30;48.50;;;;;;4991164;28;20471;-70
2021/05/22 13:07:12;;;;;;;10.53;9.83;;;21.00;49.50;;;;;;4991136;28;20478;-70
2021/05/22 13:09:57;;;;;;;10.10;9.60;;;21.50;48.90;;;;;;4991419;28;20824;-69
2021/05/22 13:12:24;;;;;;;10.10;9.70;;;22.00;48.80;;;;;;4990989;28;20443;-69
2021/05/22 13:14:52;;;;;;;10.43;9.90;;;23.10;48.20;;;;;;4991125;28;20478;-69
2021/05/22 13:17:20;;;;;;;10.53;10.13;;;23.80;47.70;;;;;;4991076;28;20477;-69
2021/05/22 13:19:48;;;;;;;10.73;10.33;;;24.20;46.40;;;;;;4991297;28;20508;-70
2021/05/22 13:22:30;;;;;;;10.43;10.03;;;24.90;45.60;;;;;;4991137;28;20442;-69
2021/05/22 13:25:12;;;;;;;11.07;10.67;;;24.30;45.70;;;;;;4976262;28;20444;-69
2021/05/22 13:27:54;;;;;;;11.23;10.77;;;24.50;46.00;;;;;;4971726;28;20738;-70
2021/05/22 13:30:22;;;;;;;10.50;9.97;;;24.90;46.50;;;;;;4970939;28;20534;-69
2021/05/22 13:32:49;;;;;;;10.63;10.03;;;25.20;45.70;;;;;;4971350;28;20479;-69
2021/05/22 13:35:15;;;;;;;10.50;10.10;;;24.90;46.10;;;;;;4971709;28;20458;-69
2021/05/22 13:37:41;;;;;;;11.73;11.10;;;24.50;47.10;;;;;;4975445;28;20448;-69
2021/05/22 13:40:08;;;;;;;10.97;10.50;;;25.00;46.70;;;;;;4975429;28;20475;-69
2021/05/22 13:42:34;;;;;;;10.87;10.37;;;25.60;44.80;;;;;;4975297;28;20447;-69
2021/05/22 13:45:01;;;;;;;10.57;10.27;;;25.70;43.70;;;;;;4975353;28;20459;-69
2021/05/22 13:47:27;;;;;;;11.70;11.30;;;25.50;42.60;;;;;;4975207;28;20451;-69
2021/05/22 13:49:54;;;;;;;11.20;10.80;;;24.90;42.20;;;;;;4975009;28;20810;-69
2021/05/22 13:52:20;;;;;;;10.63;10.23;;;25.00;43.00;;;;;;4975092;28;20460;-70
2021/05/22 13:54:46;;;;;;;11.30;10.83;;;24.70;42.70;;;;;;4974932;28;20821;-70
2021/05/22 13:57:12;;;;;;;11.00;10.60;;;24.90;43.40;;;;;;4975156;28;20462;-70
2021/05/22 13:59:39;;;;;;;11.33;10.93;;;25.20;42.50;;;;;;4974722;28;20456;-70
2021/05/22 14:02:05;;;;;;;11.10;10.57;;;24.90;42.90;;;;;;4974881;28;20494;-70
2021/05/22 14:04:31;;;;;;;10.47;10.07;;;24.20;44.00;;;;;;4974748;28;20455;-70
2021/05/22 14:06:58;;;;;;;10.53;10.10;;;24.10;45.40;;;;;;4974624;28;20479;-70
2021/05/22 14:09:24;;;;;;;10.87;10.37;;;23.50;45.00;;;;;;4974726;28;20455;-70
2021/05/22 14:11:50;;;;;;;11.50;10.97;;;22.90;46.30;;;;;;4974799;28;20826;-70
2021/05/22 14:14:17;;;;;;;10.53;10.13;;;23.30;46.90;;;;;;4974848;28;20459;-70
2021/05/22 14:16:44;;;;;;;10.60;10.20;;;23.90;46.40;;;;;;4974930;28;20942;-70
2021/05/22 14:19:10;;;;;;;10.80;10.40;;;24.40;45.90;;;;;;4974641;28;20590;-67
2021/05/22 14:21:37;;;;;;;10.70;10.17;;;24.50;44.60;;;;;;4974803;28;20487;-70
2021/05/22 14:24:05;;;;;;;10.00;9.50;;;23.80;45.10;;;;;;4982382;28;20451;-70
2021/05/22 14:26:31;;;;;;;10.77;10.10;;;23.20;45.70;;;;;;4994196;28;20466;-69
2021/05/22 14:28:57;;;;;;;10.67;10.20;;;22.80;47.70;;;;;;4994068;28;20455;-69
2021/05/22 14:31:23;;;;;;;10.80;10.20;;;22.00;47.60;;;;;;4994006;28;20451;-69
2021/05/22 14:33:50;;;;;;;11.03;10.40;;;21.60;48.60;;;;;;4993716;28;20524;-69
2021/05/22 14:36:16;;;;;;;9.83;9.43;;;21.30;49.70;;;;;;4994011;28;20469;-69
2021/05/22 14:38:42;;;;;;;9.40;9.10;;;21.30;49.50;;;;;;4994023;28;20808;-69
2021/05/22 14:41:09;;;;;;;11.37;10.77;;;21.20;49.00;;;;;;4994002;28;20482;-69
2021/05/22 14:43:35;;;;;;;10.60;10.20;;;21.20;49.30;;;;;;4993739;28;20798;-69